Time;durP1;ratioP1;P1;durP2;ratioP2;P2;SDS_P1;SDS_P2;PMS_P1;PMS_P2;Temp;Humidity;BMP_temperature;BMP_pressure;BME280_temperature;BME280_humidity;BME280_pressure;Samples;Min_cycle;Max_cycle;Signal;HPM_P1;HPM_P2
2022/03/08 00:02:23;;;;;;;17.33;6.93;;;;;;;-1.10;89.24;100646.16;4199627;28;22372;-72
2022/03/08 00:04:49;;;;;;;19.63;7.40;;;;;;;-1.17;89.16;100653.41;4204813;28;20236;-70
2022/03/08 00:07:16;;;;;;;18.80;7.63;;;;;;;-1.17;89.18;100649.94;4189149;28;20237;-71
2022/03/08 00:09:45;;;;;;;20.67;7.50;;;;;;;-1.41;89.28;100643.97;4191717;28;20241;-72
2022/03/08 00:12:12;;;;;;;20.93;7.20;;;;;;;-1.36;89.45;100648.13;4192816;28;24949;-69
2022/03/08 00:14:39;;;;;;;19.23;7.40;;;;;;;-1.35;90.00;100651.56;4200683;28;20555;-71
2022/03/08 00:17:05;;;;;;;22.47;7.30;;;;;;;-1.35;89.48;100648.97;4191354;28;20340;-69
2022/03/08 00:19:32;;;;;;;20.17;7.23;;;;;;;-1.42;90.21;100650.97;4198766;28;20878;-69
2022/03/08 00:21:58;;;;;;;20.40;7.07;;;;;;;-1.51;90.19;100635.69;4203871;28;20301;-69
2022/03/08 00:24:25;;;;;;;24.00;7.23;;;;;;;-1.52;90.49;100636.63;4188929;28;20285;-68
2022/03/08 00:26:51;;;;;;;16.87;6.87;;;;;;;-1.53;91.25;100627.91;4195682;28;20279;-68
2022/03/08 00:29:18;;;;;;;19.20;7.07;;;;;;;-1.64;91.24;100619.69;4208730;28;20239;-71
2022/03/08 00:31:45;;;;;;;19.80;7.00;;;;;;;-1.62;91.20;100615.25;4206185;28;20236;-71
2022/03/08 00:34:11;;;;;;;17.27;6.67;;;;;;;-1.63;91.75;100620.53;4195636;28;21259;-69
2022/03/08 00:36:38;;;;;;;21.80;7.30;;;;;;;-1.69;91.75;100621.63;4198993;28;22447;-71
2022/03/08 00:39:04;;;;;;;21.33;7.53;;;;;;;-1.67;91.87;100625.03;4202057;28;20240;-70
2022/03/08 00:41:31;;;;;;;28.63;7.60;;;;;;;-1.65;91.82;100630.19;4211975;28;20312;-69
2022/03/08 00:43:58;;;;;;;22.93;7.57;;;;;;;-1.73;91.94;100628.75;4199841;28;20232;-71
2022/03/08 00:46:24;;;;;;;19.53;7.33;;;;;;;-1.71;92.26;100629.53;4206235;28;22025;-70
2022/03/08 00:48:51;;;;;;;23.07;7.93;;;;;;;-1.70;92.51;100636.44;4199571;28;20577;-69
2022/03/08 00:51:17;;;;;;;21.57;7.90;;;;;;;-1.78;92.60;100643.75;4200802;28;20291;-70
2022/03/08 00:53:46;;;;;;;24.10;7.90;;;;;;;-1.74;92.64;100645.28;4195811;28;20247;-69
2022/03/08 00:56:12;;;;;;;22.40;7.40;;;;;;;-1.76;92.47;100646.25;4194227;28;20236;-69
2022/03/08 00:58:39;;;;;;;22.70;8.00;;;;;;;-1.89;92.73;100640.69;4201272;28;20249;-70
2022/03/08 01:01:05;;;;;;;19.37;7.23;;;;;;;-1.83;93.11;100644.81;4207516;28;20632;-69
2022/03/08 01:03:33;;;;;;;21.10;7.47;;;;;;;-1.86;92.78;100640.56;4202581;28;20361;-69
2022/03/08 01:05:59;;;;;;;18.73;7.57;;;;;;;-1.88;92.79;100642.38;4208200;28;20250;-68
2022/03/08 01:08:27;;;;;;;23.50;8.10;;;;;;;-1.90;93.10;100639.00;4204123;28;20312;-69
2022/03/08 01:10:54;;;;;;;18.67;7.10;;;;;;;-1.87;92.79;100638.88;4195810;28;22546;-70
2022/03/08 01:13:20;;;;;;;22.07;7.47;;;;;;;-1.98;93.35;100630.63;4194044;28;20233;-70
2022/03/08 01:15:48;;;;;;;19.57;7.40;;;;;;;-1.96;93.27;100629.66;4202506;28;24014;-69
2022/03/08 01:18:15;;;;;;;19.70;7.37;;;;;;;-1.94;93.50;100633.06;4197247;28;20461;-69
2022/03/08 01:20:41;;;;;;;16.90;7.20;;;;;;;-2.03;93.31;100622.16;4196448;28;21338;-72
2022/03/08 01:23:08;;;;;;;22.93;8.30;;;;;;;-2.05;93.56;100618.75;4211048;28;20517;-70
2022/03/08 01:25:36;;;;;;;19.43;7.17;;;;;;;-2.22;94.68;100620.25;4205466;28;21906;-69
2022/03/08 01:28:03;;;;;;;18.83;7.60;;;;;;;-2.23;94.90;100621.16;4204800;28;20230;-69
2022/03/08 01:30:31;;;;;;;22.80;7.30;;;;;;;-2.12;94.88;100624.19;4210955;28;20396;-69
2022/03/08 01:32:58;;;;;;;20.30;7.50;;;;;;;-2.16;94.77;100617.38;4201922;28;21548;-68
2022/03/08 01:35:25;;;;;;;19.33;7.53;;;;;;;-2.13;94.86;100614.69;4208285;28;20376;-70
2022/03/08 01:37:51;;;;;;;21.90;7.93;;;;;;;-2.14;94.62;100617.34;4186926;28;20578;-68
2022/03/08 01:40:18;;;;;;;19.37;6.77;;;;;;;-2.12;94.61;100613.75;4192600;28;20241;-69
2022/03/08 01:42:48;;;;;;;25.20;6.77;;;;;;;-2.17;94.50;100610.50;4201555;28;20318;-70
2022/03/08 01:45:16;;;;;;;19.10;6.87;;;;;;;-2.17;94.98;100607.88;4210105;28;20232;-69
2022/03/08 01:47:42;;;;;;;18.77;7.23;;;;;;;-2.22;95.46;100609.81;4194166;28;20229;-69
2022/03/08 01:50:10;;;;;;;17.87;6.83;;;;;;;-2.24;95.51;100608.19;4200789;28;20266;-68
2022/03/08 01:52:37;;;;;;;21.30;6.93;;;;;;;-2.22;94.95;100611.59;4200029;28;20846;-70
2022/03/08 01:55:05;;;;;;;17.60;6.97;;;;;;;-2.19;95.10;100614.06;4198203;28;22523;-71
2022/03/08 01:57:33;;;;;;;27.60;7.17;;;;;;;-2.28;95.27;100615.25;4209049;28;20241;-69
2022/03/08 01:59:59;;;;;;;23.43;7.37;;;;;;;-2.16;95.17;100614.78;4209445;28;20231;-69
2022/03/08 02:02:26;;;;;;;18.97;7.00;;;;;;;-2.19;95.72;100617.53;4210505;28;22224;-69
2022/03/08 02:04:52;;;;;;;16.40;7.00;;;;;;;-2.14;95.64;100619.94;4209096;28;21079;-70
2022/03/08 02:07:19;;;;;;;18.93;7.43;;;;;;;-2.20;95.21;100625.38;4198166;28;23249;-68
2022/03/08 02:09:46;;;;;;;20.07;7.47;;;;;;;-2.30;95.83;100624.06;4219235;28;21332;-68
2022/03/08 02:12:14;;;;;;;21.37;7.20;;;;;;;-2.33;96.26;100617.19;4202423;28;25697;-69
2022/03/08 02:14:42;;;;;;;19.23;6.83;;;;;;;-2.41;96.36;100621.84;4194159;28;20250;-68
2022/03/08 02:17:08;;;;;;;27.70;7.87;;;;;;;-2.39;96.76;100620.91;4208423;28;20246;-71
2022/03/08 02:19:35;;;;;;;21.63;8.77;;;;;;;-2.38;97.07;100621.75;4205171;28;20312;-70
2022/03/08 02:22:02;;;;;;;18.40;7.43;;;;;;;-2.45;97.12;100623.72;4198357;28;21035;-69
2022/03/08 02:24:28;;;;;;;21.40;7.23;;;;;;;-2.46;97.42;100623.78;4195284;28;20741;-68
2022/03/08 02:26:55;;;;;;;20.87;8.40;;;;;;;-2.56;98.18;100628.47;4225605;28;21368;-69
2022/03/08 02:29:22;;;;;;;20.90;8.17;;;;;;;-2.56;97.98;100634.53;4197749;28;20357;-70
2022/03/08 02:31:48;;;;;;;16.40;6.93;;;;;;;-2.53;98.41;100633.56;4207630;28;20232;-68
2022/03/08 02:34:15;;;;;;;24.63;8.27;;;;;;;-2.66;98.67;100630.59;4187890;28;20244;-69
2022/03/08 02:36:58;;;;;;;21.70;8.07;;;;;;;-2.59;98.35;100642.47;4202722;28;23743;-70
2022/03/08 02:39:24;;;;;;;23.53;8.23;;;;;;;-2.63;98.86;100638.28;4195954;28;21711;-70
2022/03/08 02:41:51;;;;;;;23.87;8.37;;;;;;;-2.63;98.49;100640.88;4209577;28;20794;-68
2022/03/08 02:44:17;;;;;;;19.90;7.77;;;;;;;-2.60;99.14;100643.41;4189930;28;20300;-69
2022/03/08 02:46:44;;;;;;;21.87;8.00;;;;;;;-2.55;98.51;100641.47;4207695;28;22369;-70
2022/03/08 02:49:11;;;;;;;22.10;7.60;;;;;;;-2.72;98.57;100645.56;4191850;28;20322;-68
2022/03/08 02:51:37;;;;;;;24.43;8.10;;;;;;;-2.69;98.87;100643.72;4192554;28;23360;-68
2022/03/08 02:54:03;;;;;;;22.00;8.67;;;;;;;-2.70;99.07;100647.22;4190632;28;20229;-68
2022/03/08 02:56:30;;;;;;;20.90;7.80;;;;;;;-2.68;99.17;100653.22;4199547;28;20236;-70
2022/03/08 02:58:57;;;;;;;19.47;8.63;;;;;;;-2.64;98.96;100656.59;4197605;28;21736;-68
2022/03/08 03:01:23;;;;;;;22.17;8.00;;;;;;;-2.66;99.53;100654.03;4190588;28;21822;-71
2022/03/08 03:03:50;;;;;;;19.97;7.77;;;;;;;-2.68;99.15;100655.84;4209690;28;20235;-68
2022/03/08 03:06:17;;;;;;;23.43;8.20;;;;;;;-2.69;98.91;100667.16;4189189;28;20236;-67
2022/03/08 03:08:43;;;;;;;21.17;8.17;;;;;;;-2.66;99.14;100668.81;4195211;28;20663;-67
2022/03/08 03:11:10;;;;;;;20.20;8.10;;;;;;;-2.79;98.95;100658.84;4201247;28;20247;-70
2022/03/08 03:13:36;;;;;;;23.47;7.93;;;;;;;-2.83;99.14;100664.22;4190014;28;21617;-68
2022/03/08 03:16:03;;;;;;;25.10;8.00;;;;;;;-2.79;99.56;100665.78;4193673;28;20241;-71
2022/03/08 03:18:31;;;;;;;21.83;7.93;;;;;;;-2.79;99.92;100666.66;4194011;28;20222;-67
2022/03/08 03:20:57;;;;;;;20.23;7.60;;;;;;;-2.85;99.60;100679.88;4202055;28;20260;-69
2022/03/08 03:23:24;;;;;;;24.47;8.30;;;;;;;-2.80;99.87;100677.13;4198300;28;20237;-68
2022/03/08 03:25:50;;;;;;;24.23;8.40;;;;;;;-2.80;99.25;100664.09;4187447;28;20234;-68
2022/03/08 03:28:17;;;;;;;22.57;8.47;;;;;;;-2.79;99.27;100673.59;4181112;28;20236;-68
2022/03/08 03:30:43;;;;;;;19.57;8.10;;;;;;;-2.80;99.58;100680.56;4190624;28;23019;-69
2022/03/08 03:33:10;;;;;;;18.97;8.40;;;;;;;-2.82;99.25;100684.97;4210669;28;20226;-68
2022/03/08 03:35:37;;;;;;;21.80;8.20;;;;;;;-2.87;99.23;100686.88;4208687;28;20272;-69
2022/03/08 03:38:03;;;;;;;22.47;8.23;;;;;;;-2.87;99.50;100693.84;4205877;28;20244;-68
2022/03/08 03:40:30;;;;;;;22.83;8.23;;;;;;;-2.85;99.49;100692.06;4192186;28;23226;-68
2022/03/08 03:42:56;;;;;;;21.00;8.40;;;;;;;-2.86;99.01;100693.78;4194416;28;21662;-70
2022/03/08 03:45:23;;;;;;;21.77;8.33;;;;;;;-2.92;99.98;100688.81;4192994;28;20245;-68
2022/03/08 03:47:49;;;;;;;25.13;8.83;;;;;;;-2.93;99.24;100687.09;4215337;28;20239;-69
2022/03/08 03:50:16;;;;;;;22.50;9.23;;;;;;;-2.95;99.75;100682.84;4194803;28;21635;-69
2022/03/08 03:52:42;;;;;;;25.10;8.07;;;;;;;-2.94;99.79;100682.81;4199595;28;20247;-68
2022/03/08 03:55:11;;;;;;;24.57;8.13;;;;;;;-3.09;99.80;100681.59;4205920;28;21755;-69
2022/03/08 03:57:37;;;;;;;21.30;7.67;;;;;;;-2.97;99.45;100685.53;4199812;28;20416;-69
2022/03/08 04:00:05;;;;;;;20.20;8.13;;;;;;;-3.03;99.90;100683.13;4207836;28;20407;-67
2022/03/08 04:02:32;;;;;;;23.87;7.77;;;;;;;-3.04;100.00;100684.88;4197863;28;20236;-68
2022/03/08 04:04:59;;;;;;;20.70;7.53;;;;;;;-3.07;100.00;100678.91;4209148;28;23362;-70
2022/03/08 04:07:25;;;;;;;18.83;7.40;;;;;;;-3.06;100.00;100685.84;4186823;28;22125;-69
2022/03/08 04:09:53;;;;;;;18.87;7.07;;;;;;;-3.02;100.00;100693.50;4208654;28;20379;-68
2022/03/08 04:12:19;;;;;;;17.73;7.07;;;;;;;-3.02;100.00;100688.28;4202304;28;20229;-67
2022/03/08 04:14:46;;;;;;;18.03;7.10;;;;;;;-3.00;99.78;100691.69;4193353;28;20779;-69
2022/03/08 04:17:13;;;;;;;18.00;7.60;;;;;;;-3.01;99.76;100684.75;4205164;28;20236;-69
2022/03/08 04:19:40;;;;;;;20.77;7.13;;;;;;;-3.04;99.60;100695.28;4190816;28;20289;-68
2022/03/08 04:22:07;;;;;;;16.20;6.70;;;;;;;-3.06;99.67;100696.25;4197820;28;20385;-69
2022/03/08 04:24:34;;;;;;;19.03;7.33;;;;;;;-3.09;100.00;100702.41;4207074;28;20248;-68
2022/03/08 04:27:00;;;;;;;17.20;6.70;;;;;;;-3.14;100.00;100703.44;4192635;28;20230;-70
2022/03/08 04:29:27;;;;;;;21.13;7.67;;;;;;;-3.21;100.00;100697.59;4189977;28;22348;-68
2022/03/08 04:31:53;;;;;;;22.00;8.40;;;;;;;-3.21;100.00;100690.66;4201832;28;20247;-70
2022/03/08 04:34:20;;;;;;;17.10;7.07;;;;;;;-3.19;100.00;100695.78;4202895;28;20239;-68
2022/03/08 04:36:48;;;;;;;21.20;7.63;;;;;;;-3.13;100.00;100699.97;4191737;28;20244;-69
2022/03/08 04:39:14;;;;;;;20.53;7.33;;;;;;;-3.23;100.00;100702.00;4193143;28;20230;-69
2022/03/08 04:41:41;;;;;;;16.53;7.50;;;;;;;-3.19;100.00;100701.84;4202283;28;25158;-69
2022/03/08 04:44:08;;;;;;;19.23;7.43;;;;;;;-3.18;100.00;100694.91;4194903;28;25252;-68
2022/03/08 04:46:34;;;;;;;20.93;7.93;;;;;;;-3.23;100.00;100697.66;4201776;28;21229;-69
2022/03/08 04:49:01;;;;;;;18.70;7.43;;;;;;;-3.20;100.00;100688.91;4191429;28;20236;-69
2022/03/08 04:51:27;;;;;;;18.43;6.87;;;;;;;-3.15;100.00;100693.94;4198756;28;20232;-68
2022/03/08 04:53:54;;;;;;;17.80;7.20;;;;;;;-3.20;100.00;100696.72;4221077;28;20291;-68
2022/03/08 04:56:20;;;;;;;18.53;7.10;;;;;;;-3.18;100.00;100700.13;4220455;28;20248;-67
2022/03/08 04:58:50;;;;;;;25.67;7.93;;;;;;;-3.19;99.93;100701.00;4207329;28;20237;-69
2022/03/08 05:01:20;;;;;;;19.73;7.00;;;;;;;-3.15;100.00;100699.16;4200774;28;20399;-69
2022/03/08 05:03:46;;;;;;;18.43;7.53;;;;;;;-2.99;100.00;100702.94;4214477;28;22143;-69
2022/03/08 05:06:16;;;;;;;17.57;7.90;;;;;;;-3.27;99.77;100698.66;4195413;28;20372;-69
2022/03/08 05:08:43;;;;;;;18.40;7.30;;;;;;;-3.20;100.00;100699.31;4186768;28;20383;-68
2022/03/08 05:11:09;;;;;;;16.90;7.27;;;;;;;-3.29;100.00;100700.47;4196716;28;20254;-67
2022/03/08 05:13:37;;;;;;;21.90;8.70;;;;;;;-3.29;100.00;100697.00;4205479;28;20300;-68
2022/03/08 05:16:04;;;;;;;18.40;7.37;;;;;;;-3.22;100.00;100708.91;4205029;28;21206;-56
2022/03/08 05:18:32;;;;;;;20.67;8.03;;;;;;;-3.18;100.00;100702.72;4208363;28;20821;-71
2022/03/08 05:20:58;;;;;;;20.80;8.17;;;;;;;-3.15;100.00;100717.38;4271669;28;21238;-69
2022/03/08 05:23:25;;;;;;;21.10;8.27;;;;;;;-3.07;100.00;100725.75;4236062;28;20257;-70
2022/03/08 05:25:52;;;;;;;22.40;8.70;;;;;;;-3.01;100.00;100729.03;4205137;28;20232;-69
2022/03/08 05:28:18;;;;;;;26.00;9.70;;;;;;;-2.96;100.00;100728.88;4207115;28;21822;-70
2022/03/08 05:30:45;;;;;;;29.37;9.37;;;;;;;-2.91;100.00;100731.31;4232048;28;20288;-70
2022/03/08 05:33:12;;;;;;;24.07;10.23;;;;;;;-2.89;100.00;100740.78;4227010;28;20235;-71
2022/03/08 05:35:38;;;;;;;30.60;11.03;;;;;;;-2.84;100.00;100738.00;4210298;28;20236;-68
2022/03/08 05:38:05;;;;;;;22.20;10.30;;;;;;;-2.81;100.00;100735.28;4229747;28;20228;-71
2022/03/08 05:40:33;;;;;;;27.77;11.53;;;;;;;-2.76;100.00;100736.00;4199536;28;21515;-69
2022/03/08 05:43:01;;;;;;;33.50;13.70;;;;;;;-2.72;100.00;100734.97;4220145;28;23065;-71
2022/03/08 05:45:29;;;;;;;43.60;14.33;;;;;;;-2.83;100.00;100735.38;4208815;28;21642;-70
2022/03/08 05:47:55;;;;;;;33.23;14.00;;;;;;;-2.78;100.00;100741.25;4195063;28;20927;-71
2022/03/08 05:50:22;;;;;;;36.37;13.87;;;;;;;-2.72;100.00;100750.59;4218049;28;20265;-70
2022/03/08 05:52:48;;;;;;;36.13;15.07;;;;;;;-2.64;100.00;100755.56;4209531;28;22471;-68
2022/03/08 05:55:15;;;;;;;33.40;15.33;;;;;;;-2.61;100.00;100756.31;4192691;28;20237;-69
2022/03/08 05:57:41;;;;;;;105.37;17.33;;;;;;;-2.71;100.00;100759.28;4199179;28;20441;-70
2022/03/08 06:00:09;;;;;;;46.20;17.23;;;;;;;-2.71;100.00;100752.31;4203650;28;22973;-69
2022/03/08 06:02:36;;;;;;;43.63;16.73;;;;;;;-2.67;100.00;100751.31;4208852;28;20239;-68
2022/03/08 06:05:03;;;;;;;43.80;16.87;;;;;;;-2.61;100.00;100765.88;4204224;28;21488;-68
2022/03/08 06:07:29;;;;;;;45.47;14.90;;;;;;;-2.60;100.00;100762.34;4205748;28;20237;-69
2022/03/08 06:09:56;;;;;;;35.87;14.47;;;;;;;-2.51;100.00;100774.22;4205482;28;20224;-69
2022/03/08 06:12:22;;;;;;;37.77;16.67;;;;;;;-2.56;100.00;100783.03;4215711;28;21545;-69
2022/03/08 06:14:49;;;;;;;59.13;22.20;;;;;;;-2.71;100.00;100782.72;4210343;28;20233;-68
2022/03/08 06:17:15;;;;;;;37.00;15.70;;;;;;;-2.79;100.00;100782.97;4211624;28;20240;-72
2022/03/08 06:19:42;;;;;;;38.83;17.53;;;;;;;-2.55;100.00;100791.72;4240374;28;21894;-73
2022/03/08 06:22:10;;;;;;;36.53;15.07;;;;;;;-2.48;100.00;100790.59;4216306;28;21854;-67
2022/03/08 06:24:37;;;;;;;38.07;15.73;;;;;;;-2.51;100.00;100792.47;4215760;28;22102;-65
2022/03/08 06:27:04;;;;;;;36.63;16.40;;;;;;;-2.47;100.00;100784.47;4204796;28;20270;-69
2022/03/08 06:29:30;;;;;;;33.17;14.60;;;;;;;-2.43;100.00;100785.25;4199351;28;21855;-67
2022/03/08 06:31:57;;;;;;;32.17;15.80;;;;;;;-2.47;100.00;100786.25;4220021;28;20448;-67
2022/03/08 06:34:24;;;;;;;37.57;15.93;;;;;;;-2.49;100.00;100790.66;4206784;28;20224;-67
2022/03/08 06:36:50;;;;;;;39.77;16.60;;;;;;;-2.37;100.00;100788.44;4235248;28;20645;-67
2022/03/08 06:39:17;;;;;;;37.33;16.60;;;;;;;-2.20;100.00;100779.19;4213542;28;20229;-66
2022/03/08 06:41:44;;;;;;;43.67;18.23;;;;;;;-2.08;100.00;100780.50;4221483;28;20222;-68
2022/03/08 06:44:11;;;;;;;41.10;18.57;;;;;;;-2.04;100.00;100784.69;4200857;28;20240;-68
2022/03/08 06:46:44;;;;;;;40.67;18.00;;;;;;;-1.89;100.00;100791.97;4205837;28;20692;-71
2022/03/08 06:49:11;;;;;;;39.83;18.20;;;;;;;-1.82;100.00;100803.88;4214969;28;20633;-67
2022/03/08 06:51:38;;;;;;;39.00;17.93;;;;;;;-1.62;100.00;100795.28;4215717;28;23459;-67
2022/03/08 06:54:05;;;;;;;43.30;19.87;;;;;;;-1.65;100.00;100795.41;4212535;28;20326;-69
2022/03/08 06:56:33;;;;;;;51.53;23.03;;;;;;;-1.78;99.61;100805.47;4225709;28;20243;-69
2022/03/08 06:59:01;;;;;;;47.10;20.70;;;;;;;-2.07;100.00;100796.09;4229986;28;21231;-72
2022/03/08 07:01:28;;;;;;;52.97;21.37;;;;;;;-2.15;100.00;100816.38;4211269;28;20232;-71
2022/03/08 07:03:54;;;;;;;46.07;21.13;;;;;;;-2.16;100.00;100805.09;4223820;28;21325;-68
2022/03/08 07:06:21;;;;;;;46.40;21.07;;;;;;;-2.12;100.00;100804.06;4214851;28;20378;-68
2022/03/08 07:08:48;;;;;;;56.27;22.33;;;;;;;-1.94;100.00;100804.34;4217387;28;20307;-66
2022/03/08 07:11:14;;;;;;;52.70;22.53;;;;;;;-1.85;100.00;100804.00;4209226;28;20308;-67
2022/03/08 07:13:41;;;;;;;51.00;22.57;;;;;;;-1.83;100.00;100802.16;4232003;28;20243;-66
2022/03/08 07:16:08;;;;;;;50.57;22.93;;;;;;;-1.84;100.00;100810.91;4231964;28;20454;-69
2022/03/08 07:18:35;;;;;;;50.90;22.93;;;;;;;-1.75;100.00;100810.56;4220129;28;21478;-68
2022/03/08 07:21:03;;;;;;;41.17;20.33;;;;;;;-1.81;100.00;100810.78;4198266;28;20248;-68
2022/03/08 07:23:32;;;;;;;40.60;19.50;;;;;;;-1.80;100.00;100817.72;4194536;28;20327;-67
2022/03/08 07:25:59;;;;;;;36.37;17.27;;;;;;;-1.78;99.88;100821.13;4222484;28;20313;-67
2022/03/08 07:28:25;;;;;;;38.60;17.80;;;;;;;-1.92;100.00;100823.34;4199782;28;20252;-67
2022/03/08 07:30:58;;;;;;;51.70;20.27;;;;;;;-2.14;100.00;100828.50;4227375;28;21682;-69
2022/03/08 07:33:26;;;;;;;40.83;19.17;;;;;;;-1.99;100.00;100832.31;4202696;28;21581;-69
2022/03/08 07:35:54;;;;;;;43.87;16.97;;;;;;;-1.85;100.00;100829.22;4206006;28;20668;-71
2022/03/08 07:38:21;;;;;;;29.27;15.27;;;;;;;-1.73;100.00;100839.22;4207804;28;20241;-68
2022/03/08 07:40:48;;;;;;;30.00;15.27;;;;;;;-1.78;100.00;100838.50;4198199;28;20240;-68
2022/03/08 07:43:15;;;;;;;26.93;14.40;;;;;;;-1.71;100.00;100838.25;4222062;28;20308;-65
2022/03/08 07:45:41;;;;;;;32.63;15.70;;;;;;;-1.57;100.00;100847.28;4238762;28;20295;-69
2022/03/08 07:48:08;;;;;;;29.93;14.33;;;;;;;-1.65;100.00;100846.75;4208621;28;20229;-66
2022/03/08 07:50:36;;;;;;;28.17;14.20;;;;;;;-1.63;100.00;100844.94;4211773;28;20669;-67
2022/03/08 07:53:04;;;;;;;23.67;12.00;;;;;;;-1.49;99.72;100851.31;4215321;28;21654;-68
2022/03/08 07:55:31;;;;;;;29.87;14.03;;;;;;;-1.47;98.95;100846.06;4209772;28;20240;-66
2022/03/08 07:57:59;;;;;;;31.50;14.10;;;;;;;-1.43;99.16;100847.63;4213613;28;20295;-66
2022/03/08 08:00:29;;;;;;;34.47;13.77;;;;;;;-1.45;99.15;100841.63;4198472;28;20237;-68
2022/03/08 08:02:56;;;;;;;30.47;13.80;;;;;;;-1.39;99.72;100844.00;4189508;28;22492;-68
2022/03/08 08:05:23;;;;;;;33.47;13.30;;;;;;;-1.41;99.33;100840.59;4202438;28;20237;-70
2022/03/08 08:07:49;;;;;;;25.93;12.80;;;;;;;-1.34;99.36;100847.28;4195067;28;20233;-70
2022/03/08 08:10:16;;;;;;;25.70;13.10;;;;;;;-1.25;99.05;100851.28;4219090;28;20252;-67
2022/03/08 08:12:43;;;;;;;22.70;11.30;;;;;;;-1.27;98.38;100843.50;4198075;28;20241;-69
2022/03/08 08:15:09;;;;;;;22.73;11.80;;;;;;;-1.27;98.15;100834.84;4211975;28;20243;-67
2022/03/08 08:17:36;;;;;;;32.40;15.93;;;;;;;-1.24;98.19;100839.97;4193470;28;20246;-75
2022/03/08 08:20:04;;;;;;;35.50;16.60;;;;;;;-1.11;99.41;100843.78;4202429;28;20238;-76
2022/03/08 08:22:31;;;;;;;25.07;11.90;;;;;;;-1.14;98.43;100848.28;4213076;28;20232;-71
2022/03/08 08:24:57;;;;;;;27.70;13.40;;;;;;;-1.20;98.11;100848.50;4195938;28;22405;-77
2022/03/08 08:27:24;;;;;;;22.70;11.67;;;;;;;-1.14;97.94;100843.06;4206661;28;21499;-71
2022/03/08 08:29:51;;;;;;;22.97;11.80;;;;;;;-1.01;97.56;100844.25;4217895;28;20295;-71
2022/03/08 08:32:18;;;;;;;22.93;12.17;;;;;;;-1.01;97.30;100841.63;4203615;28;20235;-72
2022/03/08 08:34:44;;;;;;;22.00;12.23;;;;;;;-0.96;96.94;100831.88;4206746;28;20754;-72
2022/03/08 08:37:11;;;;;;;30.20;12.77;;;;;;;-1.04;96.74;100836.53;4196039;28;20237;-70
2022/03/08 08:39:38;;;;;;;24.17;12.57;;;;;;;-0.88;96.28;100828.94;4188065;28;21666;-71
2022/03/08 08:42:06;;;;;;;25.27;13.50;;;;;;;-0.77;95.73;100833.72;4190835;28;20220;-72
2022/03/08 08:44:37;;;;;;;27.27;13.23;;;;;;;-0.95;96.21;100828.34;4202374;28;20230;-72
2022/03/08 08:47:04;;;;;;;27.93;14.13;;;;;;;-0.75;96.74;100824.06;4212394;28;20233;-72
2022/03/08 08:49:31;;;;;;;30.37;15.23;;;;;;;-0.73;96.44;100827.47;4241268;28;20262;-77
2022/03/08 08:52:02;;;;;;;29.00;14.27;;;;;;;-0.70;95.62;100838.66;4224168;28;20234;-71
2022/03/08 08:54:30;;;;;;;26.70;14.33;;;;;;;-0.73;96.36;100833.53;4227421;28;21498;-73
2022/03/08 08:56:56;;;;;;;26.23;14.50;;;;;;;-0.64;95.97;100821.84;4210867;28;20230;-71
2022/03/08 08:59:23;;;;;;;26.90;14.73;;;;;;;-0.59;95.32;100822.50;4224593;28;21655;-75
2022/03/08 09:01:50;;;;;;;27.63;14.60;;;;;;;-0.39;95.45;100826.06;4241166;28;20242;-74
2022/03/08 09:04:17;;;;;;;28.23;14.60;;;;;;;-0.30;94.91;100825.69;4213883;28;21785;-75
2022/03/08 09:06:43;;;;;;;22.77;13.13;;;;;;;-0.33;93.58;100823.16;4222686;28;22366;-72
2022/03/08 09:09:10;;;;;;;23.10;13.53;;;;;;;-0.34;93.81;100816.25;4207492;28;20224;-74
2022/03/08 09:11:37;;;;;;;22.77;12.47;;;;;;;-0.51;93.44;100807.38;4220423;28;20313;-74
2022/03/08 09:14:05;;;;;;;23.80;12.90;;;;;;;-0.31;93.83;100803.88;4214205;28;20233;-73
2022/03/08 09:16:32;;;;;;;23.23;12.20;;;;;;;-0.13;93.04;100807.47;4204812;28;21212;-73
2022/03/08 09:18:59;;;;;;;22.30;12.63;;;;;;;0.02;93.21;100805.94;4213549;28;21554;-71
2022/03/08 09:21:25;;;;;;;23.63;13.37;;;;;;;0.13;91.98;100803.69;4212193;28;20238;-73
2022/03/08 09:23:52;;;;;;;25.43;13.23;;;;;;;0.30;91.33;100794.22;4194201;28;20232;-74
2022/03/08 09:26:19;;;;;;;24.57;12.30;;;;;;;0.52;90.43;100794.09;4215694;28;22177;-72
2022/03/08 09:28:45;;;;;;;21.53;11.70;;;;;;;0.50;88.92;100793.31;4203675;28;20235;-72
2022/03/08 09:31:12;;;;;;;25.50;12.40;;;;;;;0.47;89.08;100785.56;4209627;28;20381;-70
2022/03/08 09:33:40;;;;;;;21.70;12.60;;;;;;;0.62;88.25;100790.09;4195149;28;21470;-73
2022/03/08 09:36:07;;;;;;;23.10;12.63;;;;;;;0.59;87.64;100785.03;4230781;28;21788;-73
2022/03/08 09:38:33;;;;;;;23.40;12.10;;;;;;;0.64;86.64;100790.88;4207004;28;20413;-75
2022/03/08 09:41:02;;;;;;;23.30;13.53;;;;;;;0.49;86.70;100788.97;4194957;28;21085;-73
2022/03/08 09:43:31;;;;;;;28.57;13.63;;;;;;;0.46;87.42;100796.97;4200285;28;20238;-72
2022/03/08 09:45:57;;;;;;;27.10;14.40;;;;;;;0.54;87.85;100782.63;4213212;28;20226;-72
2022/03/08 09:48:26;;;;;;;32.23;15.77;;;;;;;0.59;86.94;100785.03;4208158;28;20491;-70
2022/03/08 09:50:53;;;;;;;29.90;15.53;;;;;;;0.31;87.16;100780.22;4218520;28;20417;-73
2022/03/08 09:53:20;;;;;;;31.23;16.23;;;;;;;0.38;87.43;100787.72;4198496;28;20234;-75
2022/03/08 09:55:46;;;;;;;32.80;16.67;;;;;;;0.47;86.78;100785.56;4227451;28;20236;-73
2022/03/08 09:58:13;;;;;;;32.40;16.20;;;;;;;0.45;85.97;100790.06;4210946;28;20234;-75
2022/03/08 10:00:40;;;;;;;35.57;15.90;;;;;;;0.40;85.50;100785.88;4206376;28;20232;-74
2022/03/08 10:03:11;;;;;;;36.07;16.40;;;;;;;0.34;85.63;100780.91;4200053;28;21563;-74
2022/03/08 10:05:43;;;;;;;27.63;14.70;;;;;;;0.66;85.44;100775.09;4209848;28;20233;-71
2022/03/08 10:08:18;;;;;;;26.57;14.90;;;;;;;0.91;84.57;100775.59;4208661;28;20408;-74
2022/03/08 10:10:58;;;;;;;26.40;13.93;;;;;;;1.07;83.17;100772.22;4190319;28;20341;-71
2022/03/08 10:13:50;;;;;;;30.27;15.00;;;;;;;1.30;82.29;100776.31;4213611;28;21270;-74
2022/03/08 10:16:22;;;;;;;28.10;14.93;;;;;;;1.63;82.47;100777.22;4196176;28;21273;-74
2022/03/08 10:19:02;;;;;;;27.97;14.43;;;;;;;1.63;79.20;100771.97;4217221;28;20236;-73
2022/03/08 10:21:31;;;;;;;22.13;13.13;;;;;;;1.82;79.75;100771.84;4206124;28;20232;-74
2022/03/08 10:24:13;;;;;;;25.50;13.87;;;;;;;2.03;78.17;100769.88;4228687;28;20309;-70
2022/03/08 10:26:58;;;;;;;21.83;12.00;;;;;;;2.46;76.29;100761.47;4184871;28;20687;-72
2022/03/08 10:29:26;;;;;;;17.97;9.57;;;;;;;2.65;73.26;100764.75;4189424;28;22094;-76
2022/03/08 10:32:17;;;;;;;17.23;10.03;;;;;;;2.93;72.97;100764.03;4213011;28;20233;-74
2022/03/08 10:34:51;;;;;;;15.33;9.30;;;;;;;3.09;71.35;100768.38;4195858;28;20355;-74
2022/03/08 10:37:20;;;;;;;14.13;9.13;;;;;;;2.90;69.90;100779.09;4194498;28;20245;-75
2022/03/08 10:39:55;;;;;;;19.27;9.50;;;;;;;2.44;71.00;100766.78;4200139;28;20225;-77
2022/03/08 10:42:31;;;;;;;26.37;10.63;;;;;;;1.78;74.35;100769.47;4201418;28;25582;-74
2022/03/08 10:45:11;;;;;;;20.50;9.93;;;;;;;1.74;76.08;100754.84;4207272;28;20235;-75
2022/03/08 10:47:39;;;;;;;17.60;9.40;;;;;;;2.31;74.29;100763.13;4224546;28;20282;-75
2022/03/08 10:50:07;;;;;;;11.97;6.90;;;;;;;2.87;72.34;100761.72;4225737;28;20244;-76
2022/03/08 10:52:37;;;;;;;26.27;7.00;;;;;;;2.99;69.87;100751.47;4223871;28;20241;-72
2022/03/08 10:55:11;;;;;;;12.13;6.97;;;;;;;3.07;69.13;100754.50;4237833;28;20237;-75
2022/03/08 10:57:39;;;;;;;12.13;6.40;;;;;;;3.16;67.39;100754.81;4197432;28;20237;-74
2022/03/08 11:00:15;;;;;;;15.93;6.77;;;;;;;3.67;66.87;100756.19;4202631;28;20252;-73
2022/03/08 11:03:15;;;;;;;10.33;6.40;;;;;;;3.79;64.66;100756.31;4254711;28;20291;-73
2022/03/08 11:05:48;;;;;;;12.43;6.00;;;;;;;3.30;65.61;100750.50;4193212;28;20237;-74
2022/03/08 11:08:16;;;;;;;12.70;6.53;;;;;;;3.37;66.78;100752.69;4206685;28;22632;-75
2022/03/08 11:10:44;;;;;;;11.60;6.20;;;;;;;3.58;65.33;100744.44;4245701;28;20285;-76
2022/03/08 11:13:13;;;;;;;17.03;6.67;;;;;;;3.81;65.17;100746.53;4210580;28;20287;-75
2022/03/08 11:15:43;;;;;;;10.40;6.27;;;;;;;3.65;64.70;100750.19;4197512;28;21821;-73